sensor_id;sensor_type;location;lat;lon;timestamp;pressure;altitude;pressure_sealevel;temperature;humidity
44309;BME280;30022;55.846;37.340;2023-01-31T00:00:40;72318.94;;;-143.51;100.00
44309;BME280;30022;55.846;37.340;2023-01-31T00:03:05;72827.81;;;-143.51;100.00
44309;BME280;30022;55.846;37.340;2023-01-31T00:05:31;73591.25;;;-143.51;100.00
44309;BME280;30022;55.846;37.340;2023-01-31T00:07:57;73336.75;;;-143.51;100.00
44309;BME280;30022;55.846;37.340;2023-01-31T00:10:22;74863.94;;;-143.51;100.00
44309;BME280;30022;55.846;37.340;2023-01-31T00:12:48;74863.94;;;-143.51;100.00
44309;BME280;30022;55.846;37.340;2023-01-31T00:15:13;75373.16;;;-143.51;100.00
44309;BME280;30022;55.846;37.340;2023-01-31T00:17:41;74354.81;;;-143.51;100.00
44309;BME280;30022;55.846;37.340;2023-01-31T00:20:07;74863.94;;;-143.51;100.00
44309;BME280;30022;55.846;37.340;2023-01-31T00:22:32;75627.75;;;-143.51;100.00
44309;BME280;30022;55.846;37.340;2023-01-31T00:24:58;74863.94;;;-143.51;100.00
44309;BME280;30022;55.846;37.340;2023-01-31T00:27:24;75373.16;;;-143.51;100.00
44309;BME280;30022;55.846;37.340;2023-01-31T00:29:49;75118.53;;;-143.51;100.00
44309;BME280;30022;55.846;37.340;2023-01-31T00:32:15;75118.53;;;-143.51;100.00
44309;BME280;30022;55.846;37.340;2023-01-31T00:34:40;76137.06;;;-143.51;100.00
44309;BME280;30022;55.846;37.340;2023-01-31T00:37:06;76391.72;;;-143.51;100.00
44309;BME280;30022;55.846;37.340;2023-01-31T00:39:31;76646.41;;;-143.51;100.00
44309;BME280;30022;55.846;37.340;2023-01-31T00:41:57;75627.75;;;-143.51;100.00
44309;BME280;30022;55.846;37.340;2023-01-31T00:44:23;75373.16;;;-143.51;100.00
44309;BME280;30022;55.846;37.340;2023-01-31T00:46:48;74863.94;;;-143.51;100.00
44309;BME280;30022;55.846;37.340;2023-01-31T00:49:14;75373.16;;;-143.51;100.00
44309;BME280;30022;55.846;37.340;2023-01-31T00:54:38;74863.94;;;-143.51;100.00
44309;BME280;30022;55.846;37.340;2023-01-31T00:57:04;75118.53;;;-143.51;100.00
44309;BME280;30022;55.846;37.340;2023-01-31T00:59:29;74354.81;;;-143.51;100.00
44309;BME280;30022;55.846;37.340;2023-01-31T01:01:55;74609.38;;;-143.51;100.00
44309;BME280;30022;55.846;37.340;2023-01-31T01:04:21;74100.28;;;-143.51;100.00
44309;BME280;30022;55.846;37.340;2023-01-31T01:06:47;74100.28;;;-143.51;100.00
44309;BME280;30022;55.846;37.340;2023-01-31T01:09:15;74100.28;;;-143.51;100.00
44309;BME280;30022;55.846;37.340;2023-01-31T01:11:40;74354.81;;;-143.51;100.00
44309;BME280;30022;55.846;37.340;2023-01-31T01:14:07;74100.28;;;-143.51;100.00
44309;BME280;30022;55.846;37.340;2023-01-31T01:16:34;73336.75;;;-143.51;100.00
44309;BME280;30022;55.846;37.340;2023-01-31T01:19:02;73082.28;;;-143.51;100.00
44309;BME280;30022;55.846;37.340;2023-01-31T01:21:30;73082.28;;;-143.51;100.00
44309;BME280;30022;55.846;37.340;2023-01-31T01:23:59;74100.28;;;-143.51;100.00
44309;BME280;30022;55.846;37.340;2023-01-31T01:26:26;74100.28;;;-143.51;100.00
44309;BME280;30022;55.846;37.340;2023-01-31T01:28:52;73336.75;;;-143.51;100.00
44309;BME280;30022;55.846;37.340;2023-01-31T01:31:19;72318.94;;;-143.51;100.00
44309;BME280;30022;55.846;37.340;2023-01-31T01:33:45;72827.81;;;-143.51;100.00
44309;BME280;30022;55.846;37.340;2023-01-31T01:36:12;72827.81;;;-143.51;100.00
44309;BME280;30022;55.846;37.340;2023-01-31T01:38:42;73591.25;;;-143.51;100.00
44309;BME280;30022;55.846;37.340;2023-01-31T01:41:09;73336.75;;;-143.51;100.00
44309;BME280;30022;55.846;37.340;2023-01-31T01:46:11;74863.94;;;-143.51;100.00
44309;BME280;30022;55.846;37.340;2023-01-31T01:48:40;74100.28;;;-143.51;100.00
44309;BME280;30022;55.846;37.340;2023-01-31T01:51:06;73845.75;;;-143.51;100.00
44309;BME280;30022;55.846;37.340;2023-01-31T01:53:33;74100.28;;;-143.51;100.00
44309;BME280;30022;55.846;37.340;2023-01-31T01:56:02;72318.94;;;-143.51;100.00
44309;BME280;30022;55.846;37.340;2023-01-31T01:58:41;72573.38;;;-143.51;100.00
44309;BME280;30022;55.846;37.340;2023-01-31T02:01:08;71301.38;;;-143.51;100.00
44309;BME280;30022;55.846;37.340;2023-01-31T02:03:37;71047.03;;;-143.51;100.00
44309;BME280;30022;55.846;37.340;2023-01-31T02:06:03;70792.72;;;-143.51;100.00
44309;BME280;30022;55.846;37.340;2023-01-31T02:08:33;68758.63;;;-143.51;100.00
44309;BME280;30022;55.846;37.340;2023-01-31T02:11:04;70284.09;;;-143.51;100.00
44309;BME280;30022;55.846;37.340;2023-01-31T02:13:32;70029.81;;;-143.51;100.00
44309;BME280;30022;55.846;37.340;2023-01-31T02:15:58;69775.53;;;-143.51;100.00
44309;BME280;30022;55.846;37.340;2023-01-31T02:18:24;71047.03;;;-143.51;100.00
44309;BME280;30022;55.846;37.340;2023-01-31T02:26:37;71301.38;;;-143.51;100.00
44309;BME280;30022;55.846;37.340;2023-01-31T02:39:40;69521.28;;;-143.51;100.00
44309;BME280;30022;55.846;37.340;2023-01-31T02:44:49;68758.63;;;-143.51;100.00
44309;BME280;30022;55.846;37.340;2023-01-31T02:49:56;70029.81;;;-143.51;100.00
44309;BME280;30022;55.846;37.340;2023-01-31T02:52:27;70284.09;;;-143.51;100.00
44309;BME280;30022;55.846;37.340;2023-01-31T02:57:44;71047.03;;;-143.51;100.00
44309;BME280;30022;55.846;37.340;2023-01-31T03:00:10;70029.81;;;-143.51;100.00
44309;BME280;30022;55.846;37.340;2023-01-31T03:02:36;68758.63;;;-143.51;100.00
44309;BME280;30022;55.846;37.340;2023-01-31T03:05:02;68758.63;;;-143.51;100.00
44309;BME280;30022;55.846;37.340;2023-01-31T03:07:29;69267.06;;;-143.51;100.00
44309;BME280;30022;55.846;37.340;2023-01-31T03:22:47;66584.69;;;-143.51;100.00
44309;BME280;30022;55.846;37.340;2023-01-31T03:25:16;67605.00;;;-143.51;100.00
44309;BME280;30022;55.846;37.340;2023-01-31T03:27:47;67603.03;;;-143.51;100.00
44309;BME280;30022;55.846;37.340;2023-01-31T03:30:19;67815.47;;;-143.51;100.00
44309;BME280;30022;55.846;37.340;2023-01-31T03:35:46;66267.13;;;-143.51;100.00
44309;BME280;30022;55.846;37.340;2023-01-31T03:38:16;65441.59;;;-143.51;100.00
44309;BME280;30022;55.846;37.340;2023-01-31T03:40:49;65058.66;;;-143.51;100.00
44309;BME280;30022;55.846;37.340;2023-01-31T03:45:51;68143.06;;;-143.51;100.00
44309;BME280;30022;55.846;37.340;2023-01-31T03:48:19;67708.25;;;-143.51;100.00
44309;BME280;30022;55.846;37.340;2023-01-31T03:50:52;66088.50;;;-143.51;100.00
44309;BME280;30022;55.846;37.340;2023-01-31T03:53:25;65598.38;;;-143.51;100.00
44309;BME280;30022;55.846;37.340;2023-01-31T03:58:23;62565.50;;;-143.51;100.00
44309;BME280;30022;55.846;37.340;2023-01-31T04:00:50;61148.06;;;-143.51;100.00
44309;BME280;30022;55.846;37.340;2023-01-31T04:03:19;60838.84;;;-143.51;100.00
44309;BME280;30022;55.846;37.340;2023-01-31T04:05:48;61235.25;;;-143.51;100.00
44309;BME280;30022;55.846;37.340;2023-01-31T04:08:18;60331.50;;;-143.51;100.00
44309;BME280;30022;55.846;37.340;2023-01-31T04:10:53;61790.31;;;-143.51;100.00
44309;BME280;30022;55.846;37.340;2023-01-31T04:13:19;63410.25;;;-143.51;100.00
44309;BME280;30022;55.846;37.340;2023-01-31T04:15:46;62835.16;;;-143.51;100.00
44309;BME280;30022;55.846;37.340;2023-01-31T04:18:12;62442.56;;;-143.51;100.00
44309;BME280;30022;55.846;37.340;2023-01-31T04:20:38;61152.00;;;-143.51;100.00
44309;BME280;30022;55.846;37.340;2023-01-31T04:23:06;61364.09;;;-143.51;100.00
44309;BME280;30022;55.846;37.340;2023-01-31T04:25:31;64205.63;;;-143.51;100.00
44309;BME280;30022;55.846;37.340;2023-01-31T04:27:57;65153.91;;;-143.51;100.00
44309;BME280;30022;55.846;37.340;2023-01-31T04:30:23;63590.75;;;-143.51;100.00
44309;BME280;30022;55.846;37.340;2023-01-31T04:32:48;62993.81;;;-143.51;100.00
44309;BME280;30022;55.846;37.340;2023-01-31T04:35:14;65024.94;;;-143.51;100.00
44309;BME280;30022;55.846;37.340;2023-01-31T04:37:40;65203.50;;;-143.51;100.00
44309;BME280;30022;55.846;37.340;2023-01-31T04:40:06;61772.47;;;-143.51;100.00
44309;BME280;30022;55.846;37.340;2023-01-31T04:42:32;61760.56;;;-143.51;100.00
44309;BME280;30022;55.846;37.340;2023-01-31T04:44:57;60424.66;;;-143.51;100.00
44309;BME280;30022;55.846;37.340;2023-01-31T04:47:24;60916.16;;;-143.51;100.00
44309;BME280;30022;55.846;37.340;2023-01-31T04:49:49;61736.78;;;-143.51;100.00
44309;BME280;30022;55.846;37.340;2023-01-31T04:52:15;62652.75;;;-143.51;100.00
44309;BME280;30022;55.846;37.340;2023-01-31T05:35:51;62831.22;;;-143.51;100.00
44309;BME280;30022;55.846;37.340;2023-01-31T05:47:25;59796.50;;;-143.51;100.00
44309;BME280;30022;55.846;37.340;2023-01-31T05:53:00;59287.31;;;-143.51;100.00
44309;BME280;30022;55.846;37.340;2023-01-31T07:53:13;53389.78;;;-143.51;100.00
44309;BME280;30022;55.846;37.340;2023-01-31T07:58:57;55065.69;;;-143.51;100.00
44309;BME280;30022;55.846;37.340;2023-01-31T08:01:32;54941.03;;;-143.51;100.00
44309;BME280;30022;55.846;37.340;2023-01-31T08:04:19;54268.22;;;-143.51;100.00
44309;BME280;30022;55.846;37.340;2023-01-31T08:06:47;55010.28;;;-143.51;100.00
44309;BME280;30022;55.846;37.340;2023-01-31T08:09:19;54576.91;;;-143.51;100.00
44309;BME280;30022;55.846;37.340;2023-01-31T08:11:48;53767.66;;;-143.51;100.00
44309;BME280;30022;55.846;37.340;2023-01-31T08:20:40;54691.66;;;-143.51;100.00
44309;BME280;30022;55.846;37.340;2023-01-31T08:23:05;54078.28;;;-143.51;100.00
44309;BME280;30022;55.846;37.340;2023-01-31T08:25:31;54507.63;;;-143.51;100.00
44309;BME280;30022;55.846;37.340;2023-01-31T08:27:57;52936.81;;;-143.51;100.00
44309;BME280;30022;55.846;37.340;2023-01-31T08:30:22;53233.50;;;-143.51;100.00
44309;BME280;30022;55.846;37.340;2023-01-31T08:32:48;54414.63;;;-143.51;100.00
44309;BME280;30022;55.846;37.340;2023-01-31T08:35:14;53579.69;;;-143.51;100.00
44309;BME280;30022;55.846;37.340;2023-01-31T08:37:39;52440.34;;;-143.51;100.00
44309;BME280;30022;55.846;37.340;2023-01-31T08:40:06;51669.09;;;-143.51;100.00
44309;BME280;30022;55.846;37.340;2023-01-31T08:42:52;51973.63;;;-143.51;100.00
44309;BME280;30022;55.846;37.340;2023-01-31T08:45:32;53061.41;;;-143.51;100.00
44309;BME280;30022;55.846;37.340;2023-01-31T08:48:05;52329.59;;;-143.51;100.00
44309;BME280;30022;55.846;37.340;2023-01-31T08:53:24;53302.75;;;-143.51;100.00
44309;BME280;30022;55.846;37.340;2023-01-31T08:55:50;53191.97;;;-143.51;100.00
44309;BME280;30022;55.846;37.340;2023-01-31T08:58:19;53190.00;;;-143.51;100.00
44309;BME280;30022;55.846;37.340;2023-01-31T09:00:44;53235.50;;;-143.51;100.00
44309;BME280;30022;55.846;37.340;2023-01-31T09:03:14;53712.25;;;-143.51;100.00
44309;BME280;30022;55.846;37.340;2023-01-31T09:05:41;53377.91;;;-143.51;100.00
44309;BME280;30022;55.846;37.340;2023-01-31T09:08:07;53322.53;;;-143.51;100.00
44309;BME280;30022;55.846;37.340;2023-01-31T09:10:33;54080.25;;;-143.51;100.00
44309;BME280;30022;55.846;37.340;2023-01-31T09:12:59;53945.72;;;-143.51;100.00
44309;BME280;30022;55.846;37.340;2023-01-31T09:15:24;52889.31;;;-143.51;100.00
44309;BME280;30022;55.846;37.340;2023-01-31T09:17:51;52381.03;;;-143.51;100.00
44309;BME280;30022;55.846;37.340;2023-01-31T09:20:17;51155.03;;;-143.51;100.00
44309;BME280;30022;55.846;37.340;2023-01-31T09:22:43;51295.41;;;-143.51;100.00
44309;BME280;30022;55.846;37.340;2023-01-31T09:25:09;50739.84;;;-143.51;100.00
44309;BME280;30022;55.846;37.340;2023-01-31T09:27:35;49836.50;;;-143.51;100.00
44309;BME280;30022;55.846;37.340;2023-01-31T09:30:07;49965.00;;;-143.51;100.00
44309;BME280;30022;55.846;37.340;2023-01-31T09:32:34;50757.66;;;-143.51;100.00
44309;BME280;30022;55.846;37.340;2023-01-31T09:35:01;51249.94;;;-143.51;100.00
44309;BME280;30022;55.846;37.340;2023-01-31T09:37:29;51431.81;;;-143.51;100.00
44309;BME280;30022;55.846;37.340;2023-01-31T09:39:56;50909.88;;;-143.51;100.00
44309;BME280;30022;55.846;37.340;2023-01-31T09:45:06;50429.50;;;-143.51;100.00
44309;BME280;30022;55.846;37.340;2023-01-31T09:47:35;50219.97;;;-143.51;100.00
44309;BME280;30022;55.846;37.340;2023-01-31T09:50:05;49885.94;;;-143.51;100.00
44309;BME280;30022;55.846;37.340;2023-01-31T09:52:32;49468.91;;;-143.51;100.00
44309;BME280;30022;55.846;37.340;2023-01-31T09:54:58;49702.13;;;-143.51;100.00
44309;BME280;30022;55.846;37.340;2023-01-31T09:57:46;49895.81;;;-143.51;100.00
44309;BME280;30022;55.846;37.340;2023-01-31T10:02:47;49138.88;;;-143.51;100.00
44309;BME280;30022;55.846;37.340;2023-01-31T10:10:48;49662.59;;;-143.51;100.00
44309;BME280;30022;55.846;37.340;2023-01-31T10:13:25;50051.94;;;-143.51;100.00
44309;BME280;30022;55.846;37.340;2023-01-31T10:15:59;49826.63;;;-143.51;100.00
44309;BME280;30022;55.846;37.340;2023-01-31T10:18:29;49994.63;;;-143.51;100.00
44309;BME280;30022;55.846;37.340;2023-01-31T10:21:07;49324.66;;;-143.51;100.00
44309;BME280;30022;55.846;37.340;2023-01-31T10:23:43;49170.50;;;-143.51;100.00
44309;BME280;30022;55.846;37.340;2023-01-31T10:26:15;49395.78;;;-143.51;100.00
44309;BME280;30022;55.846;37.340;2023-01-31T10:28:54;49524.25;;;-143.51;100.00
44309;BME280;30022;55.846;37.340;2023-01-31T10:31:33;49186.31;;;-143.51;100.00
44309;BME280;30022;55.846;37.340;2023-01-31T10:34:04;49411.59;;;-143.51;100.00
44309;BME280;30022;55.846;37.340;2023-01-31T10:36:42;49328.59;;;-143.51;100.00
44309;BME280;30022;55.846;37.340;2023-01-31T10:42:02;49241.66;;;-143.51;100.00
44309;BME280;30022;55.846;37.340;2023-01-31T10:47:13;49589.47;;;-143.51;100.00
44309;BME280;30022;55.846;37.340;2023-01-31T10:49:40;48769.38;;;-143.51;100.00
44309;BME280;30022;55.846;37.340;2023-01-31T10:57:42;49583.53;;;-143.51;100.00
44309;BME280;30022;55.846;37.340;2023-01-31T11:00:17;49451.13;;;-143.51;100.00
44309;BME280;30022;55.846;37.340;2023-01-31T11:02:44;48876.06;;;-143.51;100.00
44309;BME280;30022;55.846;37.340;2023-01-31T11:05:13;49192.25;;;-143.51;100.00
44309;BME280;30022;55.846;37.340;2023-01-31T11:07:42;49312.78;;;-143.51;100.00
44309;BME280;30022;55.846;37.340;2023-01-31T11:10:22;49498.56;;;-143.51;100.00
44309;BME280;30022;55.846;37.340;2023-01-31T11:12:55;49494.59;;;-143.51;100.00
44309;BME280;30022;55.846;37.340;2023-01-31T11:15:22;49747.56;;;-143.51;100.00
44309;BME280;30022;55.846;37.340;2023-01-31T11:17:50;49484.72;;;-143.51;100.00
44309;BME280;30022;55.846;37.340;2023-01-31T11:20:23;49306.88;;;-143.51;100.00
44309;BME280;30022;55.846;37.340;2023-01-31T11:22:50;49844.41;;;-143.51;100.00
44309;BME280;30022;55.846;37.340;2023-01-31T11:25:20;49880.00;;;-143.51;100.00
44309;BME280;30022;55.846;37.340;2023-01-31T11:27:47;50216.00;;;-143.51;100.00
44309;BME280;30022;55.846;37.340;2023-01-31T11:33:11;49176.44;;;-143.51;100.00
44309;BME280;30022;55.846;37.340;2023-01-31T11:35:54;49115.19;;;-143.51;100.00
44309;BME280;30022;55.846;37.340;2023-01-31T11:38:21;49409.63;;;-143.51;100.00
44309;BME280;30022;55.846;37.340;2023-01-31T11:40:47;49676.44;;;-143.51;100.00
44309;BME280;30022;55.846;37.340;2023-01-31T11:45:42;49188.28;;;-143.51;100.00
44309;BME280;30022;55.846;37.340;2023-01-31T11:48:14;49427.41;;;-143.51;100.00
44309;BME280;30022;55.846;37.340;2023-01-31T11:50:43;49170.50;;;-143.51;100.00
44309;BME280;30022;55.846;37.340;2023-01-31T11:55:55;49249.56;;;-143.51;100.00
44309;BME280;30022;55.846;37.340;2023-01-31T11:58:23;49591.44;;;-143.51;100.00
44309;BME280;30022;55.846;37.340;2023-01-31T12:00:53;50049.97;;;-143.51;100.00
44309;BME280;30022;55.846;37.340;2023-01-31T12:03:22;49399.75;;;-143.51;100.00
44309;BME280;30022;55.846;37.340;2023-01-31T12:05:50;49627.03;;;-143.51;100.00
44309;BME280;30022;55.846;37.340;2023-01-31T12:13:46;49652.72;;;-143.51;100.00
44309;BME280;30022;55.846;37.340;2023-01-31T12:16:12;49555.88;;;-143.51;100.00
44309;BME280;30022;55.846;37.340;2023-01-31T12:21:14;49601.31;;;-143.51;100.00
44309;BME280;30022;55.846;37.340;2023-01-31T12:23:43;50077.66;;;-143.51;100.00
44309;BME280;30022;55.846;37.340;2023-01-31T12:26:14;50370.19;;;-143.51;100.00
44309;BME280;30022;55.846;37.340;2023-01-31T12:31:44;49652.72;;;-143.51;100.00
44309;BME280;30022;55.846;37.340;2023-01-31T12:34:37;49212.00;;;-143.51;100.00
44309;BME280;30022;55.846;37.340;2023-01-31T12:37:16;49901.75;;;-143.51;100.00
44309;BME280;30022;55.846;37.340;2023-01-31T12:45:02;49046.00;;;-143.51;100.00
44309;BME280;30022;55.846;37.340;2023-01-31T12:50:25;49267.34;;;-143.51;100.00
44309;BME280;30022;55.846;37.340;2023-01-31T12:55:31;49411.59;;;-143.51;100.00
44309;BME280;30022;55.846;37.340;2023-01-31T13:00:28;49966.97;;;-143.51;100.00
44309;BME280;30022;55.846;37.340;2023-01-31T13:03:08;49295.00;;;-143.51;100.00
44309;BME280;30022;55.846;37.340;2023-01-31T13:05:42;48830.63;;;-143.51;100.00
44309;BME280;30022;55.846;37.340;2023-01-31T13:10:49;49344.41;;;-143.51;100.00
44309;BME280;30022;55.846;37.340;2023-01-31T13:13:19;49364.16;;;-143.51;100.00
44309;BME280;30022;55.846;37.340;2023-01-31T13:15:51;49255.47;;;-143.51;100.00
44309;BME280;30022;55.846;37.340;2023-01-31T13:18:18;49536.09;;;-143.51;100.00
44309;BME280;30022;55.846;37.340;2023-01-31T13:23:51;49079.59;;;-143.51;100.00
44309;BME280;30022;55.846;37.340;2023-01-31T13:26:19;49198.19;;;-143.51;100.00
44309;BME280;30022;55.846;37.340;2023-01-31T13:28:50;49324.66;;;-143.51;100.00
44309;BME280;30022;55.846;37.340;2023-01-31T13:31:22;49577.59;;;-143.51;100.00
44309;BME280;30022;55.846;37.340;2023-01-31T13:33:51;49085.53;;;-143.51;100.00
44309;BME280;30022;55.846;37.340;2023-01-31T13:36:20;48968.94;;;-143.51;100.00
44309;BME280;30022;55.846;37.340;2023-01-31T13:38:47;49468.91;;;-143.51;100.00
44309;BME280;30022;55.846;37.340;2023-01-31T13:41:19;49403.69;;;-143.51;100.00
44309;BME280;30022;55.846;37.340;2023-01-31T13:43:47;49241.66;;;-143.51;100.00
44309;BME280;30022;55.846;37.340;2023-01-31T13:46:13;49403.69;;;-143.51;100.00
44309;BME280;30022;55.846;37.340;2023-01-31T13:48:50;49874.06;;;-143.51;100.00
44309;BME280;30022;55.846;37.340;2023-01-31T13:51:18;49455.06;;;-143.51;100.00
44309;BME280;30022;55.846;37.340;2023-01-31T13:53:48;49712.00;;;-143.51;100.00
44309;BME280;30022;55.846;37.340;2023-01-31T13:56:17;49443.22;;;-143.51;100.00
44309;BME280;30022;55.846;37.340;2023-01-31T13:58:46;49656.66;;;-143.51;100.00
44309;BME280;30022;55.846;37.340;2023-01-31T14:01:23;49943.25;;;-143.51;100.00
44309;BME280;30022;55.846;37.340;2023-01-31T14:09:30;49870.13;;;-143.51;100.00
44309;BME280;30022;55.846;37.340;2023-01-31T14:12:01;49300.94;;;-143.51;100.00
44309;BME280;30022;55.846;37.340;2023-01-31T14:18:07;49800.94;;;-143.51;100.00
44309;BME280;30022;55.846;37.340;2023-01-31T14:20:34;49678.41;;;-143.51;100.00
44309;BME280;30022;55.846;37.340;2023-01-31T14:23:52;49850.34;;;-143.51;100.00
44309;BME280;30022;55.846;37.340;2023-01-31T14:28:55;49913.59;;;-143.51;100.00
44309;BME280;30022;55.846;37.340;2023-01-31T14:31:23;49559.81;;;-143.51;100.00
44309;BME280;30022;55.846;37.340;2023-01-31T14:33:51;49715.94;;;-143.51;100.00
44309;BME280;30022;55.846;37.340;2023-01-31T14:36:39;49787.09;;;-143.51;100.00
44309;BME280;30022;55.846;37.340;2023-01-31T14:57:28;49383.94;;;-143.51;100.00
44309;BME280;30022;55.846;37.340;2023-01-31T15:04:56;49664.56;;;-143.51;100.00
44309;BME280;30022;55.846;37.340;2023-01-31T15:07:23;50753.69;;;-143.51;100.00
44309;BME280;30022;55.846;37.340;2023-01-31T15:09:49;50295.06;;;-143.51;100.00
44309;BME280;30022;55.846;37.340;2023-01-31T15:14:59;50245.66;;;-143.51;100.00
44309;BME280;30022;55.846;37.340;2023-01-31T15:17:29;49826.63;;;-143.51;100.00
44309;BME280;30022;55.846;37.340;2023-01-31T15:19:59;49508.44;;;-143.51;100.00
44309;BME280;30022;55.846;37.340;2023-01-31T15:22:27;49518.31;;;-143.51;100.00
44309;BME280;30022;55.846;37.340;2023-01-31T15:24:55;50293.09;;;-143.51;100.00
44309;BME280;30022;55.846;37.340;2023-01-31T15:27:26;50048.00;;;-143.51;100.00
44309;BME280;30022;55.846;37.340;2023-01-31T15:32:30;49931.38;;;-143.51;100.00
44309;BME280;30022;55.846;37.340;2023-01-31T15:35:01;50186.38;;;-143.51;100.00
44309;BME280;30022;55.846;37.340;2023-01-31T15:37:30;50291.13;;;-143.51;100.00
44309;BME280;30022;55.846;37.340;2023-01-31T15:39:59;50718.09;;;-143.51;100.00
44309;BME280;30022;55.846;37.340;2023-01-31T15:42:30;50729.97;;;-143.51;100.00
44309;BME280;30022;55.846;37.340;2023-01-31T15:45:11;50550.06;;;-143.51;100.00
44309;BME280;30022;55.846;37.340;2023-01-31T15:47:38;50844.63;;;-143.51;100.00
44309;BME280;30022;55.846;37.340;2023-01-31T15:50:13;51265.75;;;-143.51;100.00
44309;BME280;30022;55.846;37.340;2023-01-31T15:52:39;51350.75;;;-143.51;100.00
44309;BME280;30022;55.846;37.340;2023-01-31T15:55:06;51158.97;;;-143.51;100.00
44309;BME280;30022;55.846;37.340;2023-01-31T15:57:46;51805.53;;;-143.51;100.00
44309;BME280;30022;55.846;37.340;2023-01-31T16:00:16;51006.75;;;-143.51;100.00
44309;BME280;30022;55.846;37.340;2023-01-31T16:02:43;51178.75;;;-143.51;100.00
44309;BME280;30022;55.846;37.340;2023-01-31T16:05:11;51259.81;;;-143.51;100.00
44309;BME280;30022;55.846;37.340;2023-01-31T16:07:44;51020.59;;;-143.51;100.00
44309;BME280;30022;55.846;37.340;2023-01-31T16:10:11;50550.06;;;-143.51;100.00
44309;BME280;30022;55.846;37.340;2023-01-31T16:12:42;50712.19;;;-143.51;100.00
44309;BME280;30022;55.846;37.340;2023-01-31T16:15:13;50718.09;;;-143.51;100.00
44309;BME280;30022;55.846;37.340;2023-01-31T16:17:41;50591.59;;;-143.51;100.00
44309;BME280;30022;55.846;37.340;2023-01-31T16:28:18;50123.13;;;-143.51;100.00
44309;BME280;30022;55.846;37.340;2023-01-31T16:30:44;50894.06;;;-143.51;100.00
44309;BME280;30022;55.846;37.340;2023-01-31T16:33:17;50411.69;;;-143.51;100.00
44309;BME280;30022;55.846;37.340;2023-01-31T16:35:45;50901.97;;;-143.51;100.00
44309;BME280;30022;55.846;37.340;2023-01-31T16:38:23;50672.63;;;-143.51;100.00
44309;BME280;30022;55.846;37.340;2023-01-31T16:40:52;51279.59;;;-143.51;100.00
44309;BME280;30022;55.846;37.340;2023-01-31T16:45:58;51835.22;;;-143.51;100.00
44309;BME280;30022;55.846;37.340;2023-01-31T16:48:28;53132.63;;;-143.51;100.00
44309;BME280;30022;55.846;37.340;2023-01-31T16:50:56;53846.78;;;-143.51;100.00
44309;BME280;30022;55.846;37.340;2023-01-31T16:58:46;59536.94;;;-143.51;100.00
44309;BME280;30022;55.846;37.340;2023-01-31T17:01:15;58065.09;;;-143.51;100.00
44309;BME280;30022;55.846;37.340;2023-01-31T17:03:41;57882.91;;;-143.51;100.00
44309;BME280;30022;55.846;37.340;2023-01-31T17:06:08;59639.97;;;-143.51;100.00
44309;BME280;30022;55.846;37.340;2023-01-31T17:08:35;61108.41;;;-143.51;100.00
44309;BME280;30022;55.846;37.340;2023-01-31T17:11:02;59982.75;;;-143.51;100.00
44309;BME280;30022;55.846;37.340;2023-01-31T17:13:28;60113.53;;;-143.51;100.00
44309;BME280;30022;55.846;37.340;2023-01-31T17:15:53;61068.78;;;-143.51;100.00
44309;BME280;30022;55.846;37.340;2023-01-31T17:18:19;61058.84;;;-143.51;100.00
44309;BME280;30022;55.846;37.340;2023-01-31T17:20:45;62337.50;;;-143.51;100.00
44309;BME280;30022;55.846;37.340;2023-01-31T17:23:13;61689.19;;;-143.51;100.00
44309;BME280;30022;55.846;37.340;2023-01-31T17:25:39;61159.94;;;-143.51;100.00
44309;BME280;30022;55.846;37.340;2023-01-31T17:28:07;61203.56;;;-143.51;100.00
44309;BME280;30022;55.846;37.340;2023-01-31T17:30:33;61114.34;;;-143.51;100.00
44309;BME280;30022;55.846;37.340;2023-01-31T17:39:46;60418.72;;;-143.51;100.00
44309;BME280;30022;55.846;37.340;2023-01-31T17:42:16;59465.59;;;-143.51;100.00
44309;BME280;30022;55.846;37.340;2023-01-31T17:44:43;59439.84;;;-143.51;100.00
44309;BME280;30022;55.846;37.340;2023-01-31T17:47:09;60545.53;;;-143.51;100.00
44309;BME280;30022;55.846;37.340;2023-01-31T17:49:36;60234.41;;;-143.51;100.00
44309;BME280;30022;55.846;37.340;2023-01-31T17:52:01;59011.94;;;-143.51;100.00
44309;BME280;30022;55.846;37.340;2023-01-31T17:54:28;57894.78;;;-143.51;100.00
44309;BME280;30022;55.846;37.340;2023-01-31T17:56:54;58378.03;;;-143.51;100.00
44309;BME280;30022;55.846;37.340;2023-01-31T18:02:09;59097.13;;;-143.51;100.00
44309;BME280;30022;55.846;37.340;2023-01-31T18:04:36;58348.34;;;-143.51;100.00
44309;BME280;30022;55.846;37.340;2023-01-31T18:07:05;58164.13;;;-143.51;100.00
44309;BME280;30022;55.846;37.340;2023-01-31T18:09:37;58574.16;;;-143.51;100.00
44309;BME280;30022;55.846;37.340;2023-01-31T18:12:13;60612.91;;;-143.51;100.00
44309;BME280;30022;55.846;37.340;2023-01-31T18:14:44;61286.81;;;-143.51;100.00
44309;BME280;30022;55.846;37.340;2023-01-31T18:17:13;61653.53;;;-143.51;100.00
44309;BME280;30022;55.846;37.340;2023-01-31T18:19:39;60521.75;;;-143.51;100.00
44309;BME280;30022;55.846;37.340;2023-01-31T18:22:11;59424.00;;;-143.51;100.00
44309;BME280;30022;55.846;37.340;2023-01-31T18:24:45;58298.81;;;-143.51;100.00
44309;BME280;30022;55.846;37.340;2023-01-31T18:27:13;57605.66;;;-143.51;100.00
44309;BME280;30022;55.846;37.340;2023-01-31T18:29:41;58764.31;;;-143.51;100.00